Time;durP1;ratioP1;P1;durP2;ratioP2;P2;SDS_P1;SDS_P2;PMS_P1;PMS_P2;Temp;Humidity;BMP_temperature;BMP_pressure;BME280_temperature;BME280_humidity;BME280_pressure;Samples;Min_cycle;Max_cycle;Signal;HPM_P1;HPM_P2
2021/06/30 00:00:14;;;;;;;6.90;3.00;;;15.30;99.90;;;;;;5051873;28;20029;-61
2021/06/30 00:02:39;;;;;;;5.03;3.55;;;15.20;99.90;;;;;;5051322;28;20025;-61
2021/06/30 00:05:07;;;;;;;3.10;2.80;;;15.20;99.90;;;;;;5050644;28;20107;-61
2021/06/30 00:07:33;;;;;;;11.30;2.97;;;15.20;99.90;;;;;;5049425;28;20037;-62
2021/06/30 00:09:59;;;;;;;5.45;2.97;;;15.10;99.90;;;;;;5048841;28;20052;-61
2021/06/30 00:12:25;;;;;;;6.68;2.95;;;15.10;99.90;;;;;;5050156;28;20033;-61
2021/06/30 00:14:53;;;;;;;5.50;3.65;;;15.10;99.90;;;;;;5051560;28;20083;-59
2021/06/30 00:17:19;;;;;;;5.47;3.15;;;15.00;99.90;;;;;;5051840;28;20111;-60
2021/06/30 00:19:45;;;;;;;5.28;3.15;;;15.00;99.90;;;;;;5049302;28;20469;-65
2021/06/30 00:22:10;;;;;;;7.97;4.05;;;14.90;99.90;;;;;;5051655;28;20112;-66
2021/06/30 00:24:36;;;;;;;7.03;3.65;;;14.90;99.90;;;;;;5050988;28;20029;-65
2021/06/30 00:27:02;;;;;;;8.95;3.95;;;14.80;99.90;;;;;;5049556;28;20077;-60
2021/06/30 00:29:28;;;;;;;8.90;4.28;;;14.80;99.90;;;;;;5049080;28;20446;-63
2021/06/30 00:31:53;;;;;;;6.63;4.00;;;14.80;99.90;;;;;;5051482;28;20087;-60
2021/06/30 00:34:19;;;;;;;10.38;4.47;;;14.70;99.90;;;;;;5049531;28;20025;-62
2021/06/30 00:36:46;;;;;;;6.55;3.72;;;14.70;99.90;;;;;;5050664;28;20033;-60
2021/06/30 00:39:12;;;;;;;7.15;4.43;;;14.70;99.90;;;;;;5047880;28;20032;-64
2021/06/30 00:41:38;;;;;;;11.25;4.38;;;14.70;99.90;;;;;;5049567;28;20021;-62
2021/06/30 00:44:04;;;;;;;5.57;4.25;;;14.80;99.90;;;;;;5048888;28;20029;-59
2021/06/30 00:46:32;;;;;;;8.45;4.97;;;14.70;99.90;;;;;;5049581;28;20025;-59
2021/06/30 00:48:59;;;;;;;8.80;4.70;;;14.80;99.90;;;;;;5093392;22;20135;-64
2021/06/30 00:51:27;;;;;;;14.43;6.03;;;14.80;99.90;;;;;;5075951;28;20028;-59
2021/06/30 00:53:53;;;;;;;8.65;5.45;;;14.80;99.90;;;;;;5083068;28;20082;-58
2021/06/30 00:56:24;;;;;;;8.30;5.47;;;14.80;99.90;;;;;;5084325;28;20434;-56
2021/06/30 00:58:54;;;;;;;11.52;5.60;;;14.80;99.90;;;;;;5076413;28;20028;-63
2021/06/30 01:01:21;;;;;;;10.13;5.18;;;14.80;99.90;;;;;;5083146;28;20024;-58
2021/06/30 01:03:48;;;;;;;6.82;4.85;;;14.80;99.90;;;;;;5077736;28;20036;-60
2021/06/30 01:06:14;;;;;;;8.40;5.07;;;14.70;99.90;;;;;;5085060;28;20055;-59
2021/06/30 01:08:40;;;;;;;9.10;5.10;;;14.80;99.90;;;;;;5078715;28;20024;-64
2021/06/30 01:11:07;;;;;;;6.05;4.53;;;14.70;99.90;;;;;;5082238;28;20028;-65
2021/06/30 01:13:33;;;;;;;8.60;4.70;;;14.70;99.90;;;;;;5080083;28;20025;-62
2021/06/30 01:15:58;;;;;;;12.93;5.40;;;14.60;99.90;;;;;;5078662;28;20030;-58
2021/06/30 01:18:28;;;;;;;13.70;5.28;;;14.60;99.90;;;;;;5072827;28;20023;-59
2021/06/30 01:20:54;;;;;;;10.48;5.50;;;14.60;99.90;;;;;;5080237;28;20028;-64
2021/06/30 01:23:20;;;;;;;10.25;5.78;;;14.60;99.90;;;;;;5080489;28;20382;-62
2021/06/30 01:25:47;;;;;;;7.25;5.18;;;14.60;99.90;;;;;;5076667;28;20020;-61
2021/06/30 01:28:13;;;;;;;9.50;6.68;;;14.60;99.90;;;;;;5072071;28;20082;-59
2021/06/30 01:30:40;;;;;;;7.57;5.55;;;14.70;99.90;;;;;;5059755;28;20024;-58
2021/06/30 01:33:07;;;;;;;8.10;6.03;;;14.70;99.90;;;;;;5082339;28;20102;-61
2021/06/30 01:35:33;;;;;;;10.73;6.25;;;14.70;99.90;;;;;;5073968;28;20107;-58
2021/06/30 01:38:00;;;;;;;10.82;5.45;;;14.70;99.90;;;;;;5077219;28;20043;-59
2021/06/30 01:40:25;;;;;;;13.30;6.35;;;14.80;99.90;;;;;;5071495;28;20319;-56
2021/06/30 01:42:54;;;;;;;13.68;6.25;;;14.80;99.90;;;;;;5073318;28;20082;-59
2021/06/30 01:45:19;;;;;;;10.68;6.88;;;14.80;99.90;;;;;;5078811;28;20024;-58
2021/06/30 01:47:45;;;;;;;10.30;6.35;;;14.80;99.90;;;;;;5076343;28;20103;-58
2021/06/30 01:50:11;;;;;;;16.33;6.45;;;14.80;99.90;;;;;;5070737;28;20025;-61
2021/06/30 01:52:37;;;;;;;13.15;7.10;;;14.80;99.90;;;;;;5075372;28;20036;-60
2021/06/30 01:55:05;;;;;;;11.77;6.75;;;14.70;99.90;;;;;;5075495;28;20412;-56
2021/06/30 01:57:30;;;;;;;19.10;6.57;;;14.80;99.90;;;;;;5079301;28;20461;-58
2021/06/30 01:59:56;;;;;;;12.88;6.20;;;14.80;99.90;;;;;;5071035;28;20099;-59
2021/06/30 02:02:25;;;;;;;12.23;6.93;;;14.70;99.90;;;;;;5075369;28;20032;-58
2021/06/30 02:05:05;;;;;;;12.65;6.95;;;14.70;99.90;;;;;;5078330;28;20048;-61
2021/06/30 02:07:31;;;;;;;9.02;6.32;;;14.70;99.90;;;;;;5074919;28;20576;-62
2021/06/30 02:09:57;;;;;;;13.48;7.07;;;14.70;99.90;;;;;;5080032;28;20043;-63
2021/06/30 02:12:22;;;;;;;13.40;6.07;;;14.70;99.90;;;;;;5077605;28;20032;-58
2021/06/30 02:14:48;;;;;;;18.20;7.28;;;14.70;99.90;;;;;;5071804;28;20029;-58
2021/06/30 02:17:18;;;;;;;14.43;7.68;;;14.70;99.90;;;;;;5071559;28;20104;-61
2021/06/30 02:19:43;;;;;;;14.45;8.27;;;14.70;99.90;;;;;;5074320;28;20028;-59
2021/06/30 02:22:09;;;;;;;13.45;8.25;;;14.70;99.90;;;;;;5085089;28;20491;-55
2021/06/30 02:24:35;;;;;;;15.15;8.10;;;14.70;99.90;;;;;;5053069;28;20027;-63
2021/06/30 02:27:00;;;;;;;14.85;7.75;;;14.60;99.90;;;;;;5072622;28;20410;-61
2021/06/30 02:29:26;;;;;;;13.27;7.93;;;14.60;99.90;;;;;;5065771;28;20458;-57
2021/06/30 02:31:51;;;;;;;20.23;7.85;;;14.70;99.90;;;;;;5082547;28;20020;-58
2021/06/30 02:34:17;;;;;;;15.93;7.95;;;14.70;99.90;;;;;;5074202;28;20138;-60
2021/06/30 02:36:42;;;;;;;12.35;8.00;;;14.70;99.90;;;;;;5076033;28;20051;-56
2021/06/30 02:39:08;;;;;;;14.55;8.57;;;14.70;99.90;;;;;;5075752;28;20025;-58
2021/06/30 02:41:33;;;;;;;16.55;8.20;;;14.70;99.90;;;;;;5070081;28;20036;-57
2021/06/30 02:43:59;;;;;;;13.63;8.13;;;14.70;99.90;;;;;;5075221;28;20031;-61
2021/06/30 02:46:25;;;;;;;13.90;8.52;;;14.70;99.90;;;;;;5077076;28;20074;-56
2021/06/30 02:48:50;;;;;;;15.52;8.88;;;14.70;99.90;;;;;;5078117;28;20067;-57
2021/06/30 02:51:16;;;;;;;16.80;9.40;;;14.70;99.90;;;;;;5085021;28;20069;-59
2021/06/30 02:53:41;;;;;;;14.80;10.07;;;14.70;99.90;;;;;;5075010;28;20033;-61
2021/06/30 02:56:07;;;;;;;16.23;9.77;;;14.70;99.90;;;;;;5070891;28;20664;-55
2021/06/30 02:58:32;;;;;;;16.25;10.13;;;14.70;99.90;;;;;;5091775;28;20020;-56
2021/06/30 03:00:58;;;;;;;17.85;10.35;;;14.60;99.90;;;;;;5086742;28;20055;-58
2021/06/30 03:03:23;;;;;;;14.48;10.30;;;14.60;99.90;;;;;;5081326;28;20044;-57
2021/06/30 03:05:49;;;;;;;14.38;10.27;;;14.60;99.90;;;;;;5080714;28;20479;-58
2021/06/30 03:08:15;;;;;;;22.67;11.25;;;14.60;99.90;;;;;;5082916;28;20486;-60
2021/06/30 03:10:41;;;;;;;14.25;9.95;;;14.60;99.90;;;;;;5079474;28;20396;-62
2021/06/30 03:13:06;;;;;;;16.38;8.82;;;14.60;99.90;;;;;;5065389;28;20032;-58
2021/06/30 03:15:32;;;;;;;16.90;9.18;;;14.60;99.90;;;;;;5079154;28;20407;-55
2021/06/30 03:17:57;;;;;;;16.40;9.52;;;14.50;99.90;;;;;;5078963;28;20529;-58
2021/06/30 03:20:23;;;;;;;15.40;8.80;;;14.50;99.90;;;;;;5074321;28;20028;-60
2021/06/30 03:22:49;;;;;;;16.10;9.00;;;14.50;99.90;;;;;;5074824;28;20028;-57
2021/06/30 03:25:15;;;;;;;16.25;8.32;;;14.50;99.90;;;;;;5073620;28;20029;-58
2021/06/30 03:27:41;;;;;;;17.92;9.25;;;14.50;99.90;;;;;;5086168;28;20035;-56
2021/06/30 03:30:08;;;;;;;19.42;9.98;;;14.60;99.90;;;;;;5084506;28;20510;-56
2021/06/30 03:32:34;;;;;;;18.35;10.77;;;14.60;99.90;;;;;;5078484;28;20035;-60
2021/06/30 03:35:00;;;;;;;19.15;11.15;;;14.60;99.90;;;;;;5073679;28;20845;-58
2021/06/30 03:37:26;;;;;;;24.35;10.45;;;14.70;99.90;;;;;;5075385;28;20021;-56
2021/06/30 03:39:52;;;;;;;16.92;9.23;;;14.80;99.90;;;;;;5085919;28;20090;-57
2021/06/30 03:42:17;;;;;;;16.95;11.25;;;14.80;99.90;;;;;;5088501;28;20028;-61
2021/06/30 03:44:43;;;;;;;19.85;10.00;;;14.80;99.90;;;;;;5080530;28;20031;-62
2021/06/30 03:47:09;;;;;;;16.13;10.82;;;14.80;99.90;;;;;;5080973;28;20032;-61
2021/06/30 03:49:34;;;;;;;22.08;11.00;;;14.90;99.90;;;;;;5091470;28;20037;-62
2021/06/30 03:52:00;;;;;;;22.50;11.65;;;14.90;99.90;;;;;;5085544;28;20028;-58
2021/06/30 03:54:26;;;;;;;22.13;11.20;;;14.90;99.90;;;;;;5092384;28;20840;-61
2021/06/30 03:56:52;;;;;;;18.73;10.52;;;14.90;99.90;;;;;;5075866;28;20036;-61
2021/06/30 03:59:18;;;;;;;15.95;9.45;;;14.90;99.90;;;;;;5083098;28;20081;-59
2021/06/30 04:01:44;;;;;;;17.02;10.05;;;14.90;99.90;;;;;;5085494;28;20028;-62
2021/06/30 04:04:12;;;;;;;15.75;9.32;;;15.00;99.90;;;;;;5081225;28;20032;-65
2021/06/30 04:06:39;;;;;;;17.40;9.38;;;15.00;99.90;;;;;;5075432;28;20028;-61
2021/06/30 04:09:05;;;;;;;15.82;10.32;;;15.00;99.90;;;;;;5080068;28;20024;-61
2021/06/30 04:11:31;;;;;;;17.95;11.18;;;15.00;99.90;;;;;;5072199;28;20033;-61
2021/06/30 04:13:56;;;;;;;16.25;10.07;;;15.10;99.90;;;;;;5072847;28;20035;-57
2021/06/30 04:16:22;;;;;;;15.70;10.57;;;15.10;99.90;;;;;;5076195;28;20399;-55
2021/06/30 04:18:48;;;;;;;17.95;9.68;;;15.10;99.90;;;;;;5077917;28;20488;-61
2021/06/30 04:21:14;;;;;;;13.57;10.18;;;15.20;99.90;;;;;;5083322;28;20149;-59
2021/06/30 04:23:39;;;;;;;19.30;10.38;;;15.30;99.90;;;;;;5076449;28;20100;-60
2021/06/30 04:26:05;;;;;;;15.75;10.85;;;15.30;99.90;;;;;;5093227;28;20020;-59
2021/06/30 04:28:31;;;;;;;21.20;10.43;;;15.40;99.90;;;;;;5089945;28;20024;-59
2021/06/30 04:30:57;;;;;;;14.65;9.98;;;15.50;99.90;;;;;;5084121;28;20399;-58
2021/06/30 04:33:23;;;;;;;17.42;10.13;;;15.60;99.90;;;;;;5080319;28;20028;-62
2021/06/30 04:35:48;;;;;;;14.60;10.18;;;15.70;99.90;;;;;;5088537;28;20082;-58
2021/06/30 04:38:14;;;;;;;16.35;11.20;;;15.70;99.90;;;;;;5085566;28;20109;-59
2021/06/30 04:40:39;;;;;;;14.13;10.27;;;15.70;99.90;;;;;;5074086;28;20088;-58
2021/06/30 04:43:05;;;;;;;19.33;10.95;;;15.80;99.90;;;;;;5059339;28;20032;-60
2021/06/30 04:45:31;;;;;;;17.08;10.93;;;15.80;99.90;;;;;;5081051;28;20032;-56
2021/06/30 04:47:57;;;;;;;18.67;10.73;;;15.80;99.90;;;;;;5075468;28;20045;-58
2021/06/30 04:50:22;;;;;;;22.38;11.57;;;15.80;99.90;;;;;;5079186;28;20062;-58
2021/06/30 04:52:48;;;;;;;19.30;11.07;;;15.80;99.90;;;;;;5081405;28;20030;-58
2021/06/30 04:55:13;;;;;;;19.20;10.30;;;15.70;99.90;;;;;;5077196;28;20463;-61
2021/06/30 04:57:39;;;;;;;21.25;11.45;;;15.70;99.90;;;;;;5076967;28;20031;-58
2021/06/30 05:00:08;;;;;;;16.38;10.75;;;15.80;99.90;;;;;;5083493;28;20028;-61
2021/06/30 05:02:34;;;;;;;18.17;9.52;;;15.80;99.90;;;;;;5084650;28;20020;-58
2021/06/30 05:04:59;;;;;;;13.23;8.60;;;15.80;99.90;;;;;;5073660;28;20093;-59
2021/06/30 05:07:25;;;;;;;21.85;9.20;;;15.80;99.90;;;;;;5082837;28;20028;-57
2021/06/30 05:09:51;;;;;;;14.75;7.80;;;15.80;99.90;;;;;;5075646;28;20036;-61
2021/06/30 05:12:17;;;;;;;12.50;7.10;;;15.80;99.90;;;;;;5078846;28;20507;-59
2021/06/30 05:14:43;;;;;;;13.38;7.28;;;15.90;99.90;;;;;;5074603;28;20135;-61
2021/06/30 05:17:09;;;;;;;18.85;7.63;;;15.80;99.90;;;;;;5072669;28;20060;-59
2021/06/30 05:19:34;;;;;;;16.67;7.97;;;15.90;99.90;;;;;;5075507;28;20059;-58
2021/06/30 05:22:00;;;;;;;14.38;8.50;;;15.80;99.90;;;;;;5087135;28;20029;-58
2021/06/30 05:24:25;;;;;;;16.75;8.55;;;15.80;99.90;;;;;;5073466;28;20107;-58
2021/06/30 05:26:51;;;;;;;19.08;9.43;;;15.80;99.90;;;;;;5085825;28;20031;-60
2021/06/30 05:29:17;;;;;;;14.45;8.80;;;15.90;99.90;;;;;;5082137;28;20024;-61
2021/06/30 05:31:43;;;;;;;17.67;9.60;;;15.80;99.90;;;;;;5085851;28;20036;-58
2021/06/30 05:34:08;;;;;;;13.57;9.75;;;15.90;99.90;;;;;;5076535;28;20495;-58
2021/06/30 05:36:34;;;;;;;20.02;10.57;;;15.90;99.90;;;;;;5077386;28;20524;-63
2021/06/30 05:39:00;;;;;;;15.85;10.50;;;16.00;99.90;;;;;;5075769;28;20036;-61
2021/06/30 05:41:25;;;;;;;23.92;10.88;;;16.00;99.90;;;;;;5073051;28;20112;-61
2021/06/30 05:43:51;;;;;;;15.43;11.15;;;16.00;99.90;;;;;;5073864;28;20025;-59
2021/06/30 05:46:18;;;;;;;16.92;10.30;;;16.10;99.90;;;;;;5074253;28;20056;-59
2021/06/30 05:48:44;;;;;;;16.85;10.90;;;16.20;99.90;;;;;;5056603;28;20035;-59
2021/06/30 05:51:11;;;;;;;22.75;11.52;;;16.20;99.90;;;;;;5089226;28;20063;-59
2021/06/30 05:53:38;;;;;;;14.60;10.55;;;16.30;99.90;;;;;;5077939;28;20020;-61
2021/06/30 05:56:04;;;;;;;20.27;11.48;;;16.40;99.90;;;;;;5089838;28;20118;-58
2021/06/30 05:58:29;;;;;;;17.60;11.27;;;16.60;99.90;;;;;;5075957;28;20407;-55
2021/06/30 06:00:56;;;;;;;15.48;10.07;;;16.70;99.90;;;;;;5077931;28;20024;-59
2021/06/30 06:03:22;;;;;;;15.75;10.07;;;16.80;99.90;;;;;;5074906;28;20036;-56
2021/06/30 06:05:47;;;;;;;15.30;9.80;;;16.90;99.90;;;;;;5075712;28;20029;-60
2021/06/30 06:08:13;;;;;;;14.32;9.40;;;17.00;99.90;;;;;;5071864;28;20024;-60
2021/06/30 06:10:38;;;;;;;14.63;9.38;;;17.00;99.90;;;;;;5082184;28;20032;-57
2021/06/30 06:13:04;;;;;;;20.77;9.45;;;17.10;99.90;;;;;;5076418;28;20078;-62
2021/06/30 06:15:30;;;;;;;17.92;9.93;;;17.00;99.90;;;;;;5081277;28;20032;-57
2021/06/30 06:17:55;;;;;;;13.63;8.52;;;17.10;99.90;;;;;;5080454;28;20408;-59
2021/06/30 06:20:21;;;;;;;17.55;9.25;;;17.20;99.90;;;;;;5078561;28;20099;-62
2021/06/30 06:22:47;;;;;;;17.80;8.57;;;17.30;99.90;;;;;;5075098;28;20023;-62
2021/06/30 06:25:12;;;;;;;12.18;7.07;;;17.30;99.90;;;;;;5076647;28;20024;-62
2021/06/30 06:27:39;;;;;;;10.07;7.35;;;17.40;99.90;;;;;;5077170;28;20025;-61
2021/06/30 06:30:09;;;;;;;18.10;6.53;;;17.30;99.90;;;;;;5074711;28;20036;-62
2021/06/30 06:32:35;;;;;;;11.13;6.10;;;17.30;99.90;;;;;;5085088;28;20032;-61
2021/06/30 06:35:02;;;;;;;12.30;5.65;;;17.20;99.90;;;;;;5078108;28;20052;-61
2021/06/30 06:37:28;;;;;;;12.18;5.95;;;17.20;99.90;;;;;;5077598;28;20036;-58
2021/06/30 06:39:54;;;;;;;13.40;6.57;;;17.20;99.90;;;;;;5077642;28;20395;-59
2021/06/30 06:42:20;;;;;;;8.75;5.95;;;17.30;99.90;;;;;;5078354;28;20059;-57
2021/06/30 06:44:45;;;;;;;8.68;6.80;;;17.20;99.90;;;;;;5071494;28;20021;-61
2021/06/30 06:49:59;;;;;;;16.08;9.25;;;17.30;99.90;;;;;;5043050;28;20099;-65
2021/06/30 06:52:25;;;;;;;12.02;7.05;;;17.30;99.90;;;;;;5054081;28;20024;-62
2021/06/30 06:54:51;;;;;;;13.50;6.35;;;17.30;99.90;;;;;;5041508;28;20030;-63
2021/06/30 06:57:16;;;;;;;8.73;6.03;;;17.30;99.90;;;;;;5046070;28;20450;-63
2021/06/30 06:59:42;;;;;;;12.73;6.32;;;17.10;99.90;;;;;;5033397;28;20080;-62
2021/06/30 07:02:07;;;;;;;6.78;5.28;;;17.10;99.90;;;;;;5039693;28;20021;-64
2021/06/30 07:04:33;;;;;;;9.27;5.40;;;17.20;99.90;;;;;;5039144;28;20037;-63
2021/06/30 07:06:59;;;;;;;4.88;4.13;;;17.20;99.90;;;;;;5034476;28;20033;-63
2021/06/30 07:09:24;;;;;;;6.82;3.85;;;17.00;99.90;;;;;;5034604;28;20040;-62
2021/06/30 07:11:50;;;;;;;5.65;4.20;;;17.10;99.90;;;;;;5037154;28;20025;-64
2021/06/30 07:14:16;;;;;;;4.38;3.67;;;17.10;99.90;;;;;;5034852;28;20542;-64
2021/06/30 07:16:41;;;;;;;5.75;3.05;;;17.00;99.90;;;;;;5033528;28;20040;-61
2021/06/30 07:19:07;;;;;;;7.78;3.53;;;16.90;99.90;;;;;;5040990;28;20033;-62
2021/06/30 07:21:33;;;;;;;4.90;3.38;;;16.80;99.90;;;;;;5039686;28;20075;-63
2021/06/30 07:24:03;;;;;;;3.20;2.83;;;16.80;99.90;;;;;;5039449;28;20108;-63
2021/06/30 07:26:29;;;;;;;3.35;3.00;;;16.80;99.90;;;;;;5039455;28;20053;-64
2021/06/30 07:28:55;;;;;;;4.75;3.03;;;16.70;99.90;;;;;;5038702;28;20036;-62
2021/06/30 07:31:22;;;;;;;3.13;2.03;;;16.90;99.90;;;;;;5035082;28;20434;-62
2021/06/30 07:33:48;;;;;;;4.88;2.30;;;17.00;99.90;;;;;;5032610;28;20025;-63
2021/06/30 07:36:14;;;;;;;3.28;2.65;;;17.10;99.90;;;;;;5033718;28;20485;-62
2021/06/30 07:38:41;;;;;;;5.05;3.83;;;17.10;99.90;;;;;;5040878;28;20027;-62
2021/06/30 07:41:07;;;;;;;5.63;2.85;;;17.10;99.90;;;;;;5040597;28;20381;-62
2021/06/30 07:43:32;;;;;;;3.25;2.20;;;17.10;99.90;;;;;;5047359;28;20036;-60
2021/06/30 07:45:58;;;;;;;3.55;1.70;;;17.10;99.90;;;;;;5034378;28;20103;-63
2021/06/30 07:48:24;;;;;;;1.33;1.23;;;17.10;99.90;;;;;;5033031;28;20040;-59
2021/06/30 07:50:49;;;;;;;4.43;1.17;;;17.20;99.90;;;;;;5035644;28;20029;-63
2021/06/30 07:53:16;;;;;;;2.20;1.17;;;17.40;99.90;;;;;;5038360;28;20377;-61
2021/06/30 07:55:42;;;;;;;3.33;1.33;;;17.40;99.90;;;;;;5037330;28;20029;-62
2021/06/30 07:58:08;;;;;;;7.43;2.70;;;17.40;99.90;;;;;;5033845;28;20040;-64
2021/06/30 08:00:33;;;;;;;4.68;1.55;;;17.40;99.90;;;;;;5045596;28;20017;-60
2021/06/30 08:02:59;;;;;;;2.92;1.35;;;17.30;99.90;;;;;;5036851;28;20052;-64
2021/06/30 08:05:25;;;;;;;7.88;2.70;;;17.30;99.90;;;;;;5032585;28;20136;-61
2021/06/30 08:07:50;;;;;;;5.47;2.20;;;17.40;99.90;;;;;;5034728;28;20028;-62
2021/06/30 08:10:16;;;;;;;2.47;1.65;;;17.60;99.90;;;;;;5031276;28;20025;-64
2021/06/30 08:12:41;;;;;;;3.10;1.60;;;17.60;99.90;;;;;;5036930;28;20118;-62
2021/06/30 08:15:09;;;;;;;4.15;1.60;;;17.60;99.90;;;;;;5043610;28;20028;-63
2021/06/30 08:17:35;;;;;;;2.95;1.40;;;17.70;99.90;;;;;;5033108;28;20033;-60
2021/06/30 08:20:01;;;;;;;2.08;1.30;;;17.80;99.90;;;;;;5035406;28;20063;-60
2021/06/30 08:22:26;;;;;;;2.25;1.35;;;17.70;99.90;;;;;;5040370;28;20472;-64
2021/06/30 08:24:52;;;;;;;6.60;1.45;;;17.70;99.90;;;;;;5042468;28;20500;-64
2021/06/30 08:27:20;;;;;;;2.30;1.23;;;17.50;99.90;;;;;;5036369;28;20036;-65
2021/06/30 08:29:45;;;;;;;1.55;1.30;;;17.60;99.90;;;;;;5032569;28;20033;-64
2021/06/30 08:32:11;;;;;;;3.70;1.88;;;17.60;99.90;;;;;;5037401;28;20040;-61
2021/06/30 08:34:37;;;;;;;3.80;1.75;;;17.50;99.90;;;;;;5035883;28;20128;-63
2021/06/30 08:37:05;;;;;;;7.60;2.28;;;17.50;99.90;;;;;;5049781;28;20377;-66
2021/06/30 08:39:32;;;;;;;3.25;2.65;;;17.60;99.90;;;;;;5044514;28;20025;-64
2021/06/30 08:41:58;;;;;;;3.65;2.20;;;17.80;99.90;;;;;;5038157;28;20059;-61
2021/06/30 08:44:24;;;;;;;2.88;2.55;;;17.90;99.90;;;;;;5040019;28;20109;-60
2021/06/30 08:46:51;;;;;;;3.50;3.17;;;17.80;99.90;;;;;;5033902;28;20487;-61
2021/06/30 08:49:22;;;;;;;7.57;2.33;;;17.80;99.90;;;;;;5037482;28;20124;-61
2021/06/30 08:51:51;;;;;;;3.60;2.35;;;17.70;99.90;;;;;;5034740;28;20033;-62
2021/06/30 08:54:17;;;;;;;3.13;2.72;;;17.70;99.90;;;;;;5047370;28;20083;-63
2021/06/30 08:56:43;;;;;;;4.78;2.40;;;17.70;99.90;;;;;;5039208;28;20052;-64
2021/06/30 08:59:09;;;;;;;6.97;2.42;;;17.60;99.90;;;;;;5034872;28;20021;-63
2021/06/30 09:01:34;;;;;;;2.67;2.28;;;17.50;99.90;;;;;;5036437;28;20534;-64
2021/06/30 09:04:01;;;;;;;7.35;4.00;;;17.60;99.90;;;;;;5039650;28;20477;-64
2021/06/30 09:06:28;;;;;;;2.85;2.00;;;17.60;99.90;;;;;;5044808;28;20476;-61
2021/06/30 09:09:05;;;;;;;4.97;2.20;;;17.70;99.90;;;;;;5033984;28;20061;-64
2021/06/30 09:11:32;;;;;;;5.68;1.90;;;17.90;99.90;;;;;;5030965;28;20088;-63
2021/06/30 09:14:20;;;;;;;2.08;1.98;;;17.90;99.90;;;;;;5042916;28;20036;-65
2021/06/30 09:19:51;;;;;;;2.03;1.92;;;17.80;99.90;;;;;;5033951;28;20028;-61
2021/06/30 09:22:19;;;;;;;3.00;2.80;;;17.90;99.90;;;;;;5031177;28;20341;-64
2021/06/30 09:24:45;;;;;;;2.60;2.40;;;18.10;99.90;;;;;;5034175;28;20255;-65
2021/06/30 09:27:13;;;;;;;2.33;2.13;;;18.30;99.90;;;;;;5039586;28;20758;-64
2021/06/30 09:29:41;;;;;;;3.72;1.98;;;18.20;99.90;;;;;;5033698;28;20036;-65
2021/06/30 09:32:10;;;;;;;3.25;2.40;;;18.10;99.90;;;;;;5033329;28;20135;-63
2021/06/30 09:34:36;;;;;;;2.83;2.63;;;18.30;99.90;;;;;;5033531;28;20094;-62
2021/06/30 09:37:05;;;;;;;3.65;3.35;;;18.50;99.90;;;;;;5031599;28;20492;-63
2021/06/30 09:39:36;;;;;;;4.35;3.65;;;18.70;99.90;;;;;;5041506;28;20021;-63
2021/06/30 09:42:06;;;;;;;3.40;3.10;;;18.80;99.90;;;;;;5038580;28;20025;-65
2021/06/30 09:44:32;;;;;;;4.15;3.22;;;18.90;99.90;;;;;;5039378;28;20156;-64
2021/06/30 09:46:57;;;;;;;4.05;3.67;;;18.70;99.90;;;;;;5044105;28;20116;-65
2021/06/30 09:49:25;;;;;;;6.80;2.90;;;18.90;99.90;;;;;;5045543;28;20036;-64
2021/06/30 09:52:06;;;;;;;6.25;2.42;;;19.10;99.90;;;;;;5041731;28;20031;-61
2021/06/30 09:54:33;;;;;;;2.92;2.30;;;19.00;99.90;;;;;;5033795;28;20060;-62
2021/06/30 09:57:08;;;;;;;3.50;2.35;;;18.70;99.90;;;;;;5036180;28;20120;-63
2021/06/30 09:59:47;;;;;;;3.80;2.00;;;18.90;99.90;;;;;;5036154;28;20033;-62
2021/06/30 10:02:18;;;;;;;1.45;1.27;;;19.20;99.90;;;;;;5038647;28;20024;-62
2021/06/30 10:04:44;;;;;;;0.85;0.82;;;19.30;99.90;;;;;;5034591;28;20025;-59
2021/06/30 10:07:22;;;;;;;1.65;1.23;;;19.50;99.90;;;;;;5042198;28;20108;-61
2021/06/30 10:09:48;;;;;;;2.63;1.58;;;19.40;99.90;;;;;;5033023;28;20025;-61
2021/06/30 10:12:15;;;;;;;2.88;1.70;;;19.30;99.90;;;;;;5035181;28;20190;-60
2021/06/30 10:14:43;;;;;;;2.50;2.25;;;19.40;99.90;;;;;;5033475;28;20032;-62
2021/06/30 10:17:11;;;;;;;2.80;2.45;;;19.30;99.90;;;;;;5036630;28;20042;-61
2021/06/30 10:19:38;;;;;;;3.88;2.33;;;19.50;99.90;;;;;;5035318;28;20029;-61
2021/06/30 10:22:05;;;;;;;2.15;1.95;;;19.80;99.90;;;;;;5033387;28;20032;-61
2021/06/30 10:24:32;;;;;;;6.10;2.75;;;19.90;99.90;;;;;;5035020;28;20025;-64
2021/06/30 10:26:58;;;;;;;3.47;2.40;;;19.70;99.90;;;;;;5030945;28;20029;-63
2021/06/30 10:29:29;;;;;;;3.38;1.98;;;19.50;99.90;;;;;;5039765;28;20040;-63
2021/06/30 10:32:00;;;;;;;7.55;1.70;;;19.40;99.90;;;;;;5054784;28;20039;-63
2021/06/30 10:34:36;;;;;;;3.08;2.08;;;19.50;99.90;;;;;;5056472;28;20039;-62
2021/06/30 10:37:02;;;;;;;2.75;2.00;;;19.60;99.90;;;;;;5053574;28;20032;-60
2021/06/30 10:39:40;;;;;;;2.80;1.95;;;19.40;99.90;;;;;;5053464;28;20472;-63
2021/06/30 10:42:31;;;;;;;3.28;1.65;;;20.00;99.90;;;;;;5055619;28;20029;-63
2021/06/30 10:45:05;;;;;;;4.43;1.80;;;20.40;99.90;;;;;;5054481;28;20023;-61
2021/06/30 10:47:32;;;;;;;;;;;20.40;99.90;;;;;;5051914;28;20079;-62
2021/06/30 10:50:16;;;;;;;3.25;1.25;;;20.20;99.90;;;;;;5052934;28;19912;-60
2021/06/30 10:52:43;;;;;;;4.10;1.38;;;20.10;99.90;;;;;;5050124;28;20094;-63
2021/06/30 10:58:12;;;;;;;1.05;1.02;;;20.00;99.90;;;;;;5052647;28;20028;-55
2021/06/30 11:00:54;;;;;;;5.07;1.60;;;20.10;99.90;;;;;;5057255;28;20527;-62
2021/06/30 11:03:30;;;;;;;3.72;1.20;;;20.30;99.90;;;;;;5052683;28;20087;-62
2021/06/30 11:06:22;;;;;;;2.92;0.90;;;20.10;99.90;;;;;;5056914;28;20383;-63
2021/06/30 11:09:05;;;;;;;1.02;1.00;;;19.90;99.90;;;;;;5056913;28;20040;-62
2021/06/30 11:11:34;;;;;;;0.93;0.90;;;19.50;99.90;;;;;;5054143;28;20031;-63
2021/06/30 11:14:03;;;;;;;1.67;1.00;;;19.20;99.90;;;;;;5053582;28;20069;-63
2021/06/30 11:16:47;;;;;;;1.00;0.90;;;19.30;99.90;;;;;;5053583;28;20108;-63
2021/06/30 11:19:16;;;;;;;0.70;0.68;;;19.30;99.90;;;;;;5054990;28;20485;-63
2021/06/30 11:21:52;;;;;;;3.60;0.90;;;19.60;99.90;;;;;;5063843;28;20025;-63
2021/06/30 11:24:36;;;;;;;1.50;0.80;;;19.80;99.90;;;;;;5052976;28;20020;-63
2021/06/30 11:27:15;;;;;;;1.88;0.82;;;20.00;99.90;;;;;;5053541;28;20430;-64
2021/06/30 11:29:41;;;;;;;2.35;0.98;;;19.80;99.90;;;;;;5057005;28;20547;-61
2021/06/30 11:32:07;;;;;;;1.92;0.70;;;19.70;99.90;;;;;;5049507;28;20555;-62
2021/06/30 11:34:41;;;;;;;0.80;0.80;;;19.90;99.90;;;;;;5051125;28;20033;-63
2021/06/30 11:37:07;;;;;;;;;;;19.90;99.90;;;;;;5054659;28;20051;-63
2021/06/30 11:39:33;;;;;;;1.50;1.20;;;20.20;99.90;;;;;;5042377;28;20265;-65
2021/06/30 11:42:00;;;;;;;1.83;1.00;;;20.40;99.90;;;;;;5042652;28;20373;-63
2021/06/30 11:44:37;;;;;;;1.70;1.50;;;20.40;99.90;;;;;;5055409;28;20392;-62
2021/06/30 11:47:05;;;;;;;2.17;1.67;;;20.40;99.90;;;;;;5042176;28;20107;-62
2021/06/30 11:49:32;;;;;;;2.35;1.50;;;20.40;99.90;;;;;;5037186;28;20038;-62
2021/06/30 11:52:01;;;;;;;2.17;1.10;;;20.50;99.90;;;;;;5042401;28;20423;-58
2021/06/30 11:54:28;;;;;;;3.78;1.70;;;20.40;99.90;;;;;;5051527;28;20037;-62
2021/06/30 11:56:54;;;;;;;3.35;1.63;;;20.20;99.90;;;;;;5051653;28;20052;-62
2021/06/30 11:59:26;;;;;;;3.70;1.98;;;20.50;99.90;;;;;;5052006;28;20029;-57
2021/06/30 12:01:53;;;;;;;5.30;2.00;;;20.70;99.90;;;;;;5050578;28;20025;-62
2021/06/30 12:04:25;;;;;;;2.17;1.85;;;20.40;99.90;;;;;;5036733;28;20500;-61
2021/06/30 12:07:03;;;;;;;7.85;3.35;;;20.50;99.90;;;;;;5050077;28;20119;-64
2021/06/30 12:09:33;;;;;;;4.85;3.45;;;20.80;99.90;;;;;;5039674;28;20029;-63
2021/06/30 12:12:04;;;;;;;6.22;4.18;;;20.80;99.90;;;;;;5051777;28;20171;-59
2021/06/30 12:14:49;;;;;;;4.38;3.97;;;20.60;99.90;;;;;;5045976;28;20056;-63
2021/06/30 12:17:18;;;;;;;5.30;4.25;;;20.70;99.90;;;;;;5037804;28;20029;-62
2021/06/30 12:19:52;;;;;;;4.10;3.70;;;20.80;99.90;;;;;;5037362;28;20382;-60
2021/06/30 12:22:23;;;;;;;5.33;4.93;;;21.30;99.90;;;;;;5032529;28;20384;-61
2021/06/30 12:24:59;;;;;;;6.88;4.95;;;21.30;99.90;;;;;;5033460;28;20025;-61
2021/06/30 12:27:32;;;;;;;4.57;4.18;;;21.60;99.90;;;;;;5034387;28;20045;-62
2021/06/30 12:30:01;;;;;;;5.55;4.93;;;21.30;99.90;;;;;;5044114;28;20064;-61
2021/06/30 12:32:28;;;;;;;4.55;4.15;;;20.90;99.90;;;;;;5042323;28;20408;-64
2021/06/30 12:35:01;;;;;;;3.75;3.45;;;20.90;99.90;;;;;;5050487;28;20130;-65
2021/06/30 12:37:27;;;;;;;3.45;3.00;;;20.70;99.90;;;;;;5033695;28;20029;-63
2021/06/30 12:39:59;;;;;;;3.05;2.75;;;20.70;99.90;;;;;;5032179;28;20034;-62
2021/06/30 12:42:49;;;;;;;3.38;2.33;;;20.30;99.90;;;;;;5040424;28;20029;-63
2021/06/30 12:45:20;;;;;;;2.60;2.40;;;20.50;99.90;;;;;;5050363;28;20493;-63
2021/06/30 12:50:46;;;;;;;2.65;2.00;;;20.30;99.90;;;;;;5112952;22;20058;-55
2021/06/30 12:53:28;;;;;;;2.10;1.85;;;20.30;99.90;;;;;;5091830;28;20034;-56